sensor_id;sensor_type;location;lat;lon;timestamp;pressure;altitude;pressure_sealevel;temperature;humidity
70343;BME280;57767;42.068;24.752;2023-02-03T00:00:28;99084.09;;;5.43;51.76
70343;BME280;57767;42.068;24.752;2023-02-03T00:01:32;99070.56;;;5.31;52.85
70343;BME280;57767;42.068;24.752;2023-02-03T00:02:33;99082.63;;;5.40;51.93
70343;BME280;57767;42.068;24.752;2023-02-03T00:03:35;99092.28;;;5.40;52.87
70343;BME280;57767;42.068;24.752;2023-02-03T00:04:37;99094.38;;;5.45;51.47
70343;BME280;57767;42.068;24.752;2023-02-03T00:05:39;99099.97;;;5.42;51.52
70343;BME280;57767;42.068;24.752;2023-02-03T00:06:41;99108.50;;;5.44;51.73
70343;BME280;57767;42.068;24.752;2023-02-03T00:07:43;99111.28;;;5.42;51.97
70343;BME280;57767;42.068;24.752;2023-02-03T00:08:44;99098.03;;;5.35;52.00
70343;BME280;57767;42.068;24.752;2023-02-03T00:09:46;99108.66;;;5.42;51.25
70343;BME280;57767;42.068;24.752;2023-02-03T00:10:48;99077.41;;;5.40;51.18
70343;BME280;57767;42.068;24.752;2023-02-03T00:11:50;99093.25;;;5.47;51.42
70343;BME280;57767;42.068;24.752;2023-02-03T00:12:52;99093.25;;;5.47;51.45
70343;BME280;57767;42.068;24.752;2023-02-03T00:13:54;99088.81;;;5.48;51.23
70343;BME280;57767;42.068;24.752;2023-02-03T00:14:55;99088.00;;;5.47;50.86
70343;BME280;57767;42.068;24.752;2023-02-03T00:15:57;99096.66;;;5.56;50.70
70343;BME280;57767;42.068;24.752;2023-02-03T00:16:59;99092.91;;;5.50;50.18
70343;BME280;57767;42.068;24.752;2023-02-03T00:18:00;99097.31;;;5.50;50.87
70343;BME280;57767;42.068;24.752;2023-02-03T00:19:02;99097.31;;;5.50;50.99
70343;BME280;57767;42.068;24.752;2023-02-03T00:20:04;99094.06;;;5.48;50.93
70343;BME280;57767;42.068;24.752;2023-02-03T00:21:06;99084.72;;;5.45;50.33
70343;BME280;57767;42.068;24.752;2023-02-03T00:22:07;99090.13;;;5.52;50.29
70343;BME280;57767;42.068;24.752;2023-02-03T00:23:11;99104.00;;;5.60;50.19
70343;BME280;57767;42.068;24.752;2023-02-03T00:24:12;99098.16;;;5.50;49.49
70343;BME280;57767;42.068;24.752;2023-02-03T00:25:14;99104.19;;;5.51;49.51
70343;BME280;57767;42.068;24.752;2023-02-03T00:26:16;99101.25;;;5.54;49.49
70343;BME280;57767;42.068;24.752;2023-02-03T00:27:18;99091.88;;;5.59;49.08
70343;BME280;57767;42.068;24.752;2023-02-03T00:28:19;99098.91;;;5.59;48.65
70343;BME280;57767;42.068;24.752;2023-02-03T00:29:21;99077.69;;;5.54;49.71
70343;BME280;57767;42.068;24.752;2023-02-03T00:30:26;99094.47;;;5.67;49.24
70343;BME280;57767;42.068;24.752;2023-02-03T00:31:28;99098.75;;;5.68;48.96
70343;BME280;57767;42.068;24.752;2023-02-03T00:32:30;99097.38;;;5.72;49.24
70343;BME280;57767;42.068;24.752;2023-02-03T00:33:31;99097.38;;;5.72;49.41
70343;BME280;57767;42.068;24.752;2023-02-03T00:34:34;99092.03;;;5.66;48.81
70343;BME280;57767;42.068;24.752;2023-02-03T00:35:38;99098.75;;;5.68;48.94
70343;BME280;57767;42.068;24.752;2023-02-03T00:36:40;99101.16;;;5.70;49.17
70343;BME280;57767;42.068;24.752;2023-02-03T00:37:43;99095.94;;;5.70;49.04
70343;BME280;57767;42.068;24.752;2023-02-03T00:38:45;99085.97;;;5.65;49.80
70343;BME280;57767;42.068;24.752;2023-02-03T00:39:46;99074.03;;;5.63;49.01
70343;BME280;57767;42.068;24.752;2023-02-03T00:40:52;99095.41;;;5.74;49.28
70343;BME280;57767;42.068;24.752;2023-02-03T00:41:54;99091.50;;;5.70;48.56
70343;BME280;57767;42.068;24.752;2023-02-03T00:42:55;99099.03;;;5.73;48.76
70343;BME280;57767;42.068;24.752;2023-02-03T00:43:57;99096.72;;;5.79;48.72
70343;BME280;57767;42.068;24.752;2023-02-03T00:44:59;99093.78;;;5.73;48.79
70343;BME280;57767;42.068;24.752;2023-02-03T00:46:00;99093.13;;;5.80;48.84
70343;BME280;57767;42.068;24.752;2023-02-03T00:47:02;99096.88;;;5.77;48.83
70343;BME280;57767;42.068;24.752;2023-02-03T00:48:04;99090.34;;;5.73;48.71
70343;BME280;57767;42.068;24.752;2023-02-03T00:49:06;99081.03;;;5.70;48.30
70343;BME280;57767;42.068;24.752;2023-02-03T00:50:09;99094.59;;;5.74;49.03
70343;BME280;57767;42.068;24.752;2023-02-03T00:51:11;99086.09;;;5.72;48.44
70343;BME280;57767;42.068;24.752;2023-02-03T00:52:12;99083.63;;;5.70;48.22
70343;BME280;57767;42.068;24.752;2023-02-03T00:53:14;99093.78;;;5.73;48.60
70343;BME280;57767;42.068;24.752;2023-02-03T00:54:16;99096.94;;;5.69;48.37
70343;BME280;57767;42.068;24.752;2023-02-03T00:55:17;99105.78;;;5.68;48.62
70343;BME280;57767;42.068;24.752;2023-02-03T00:56:19;99085.81;;;5.59;48.41
70343;BME280;57767;42.068;24.752;2023-02-03T00:57:20;99104.78;;;5.69;48.35
70343;BME280;57767;42.068;24.752;2023-02-03T00:58:22;99098.91;;;5.67;48.02
70343;BME280;57767;42.068;24.752;2023-02-03T00:59:24;99115.91;;;5.71;48.35
70343;BME280;57767;42.068;24.752;2023-02-03T01:00:25;99101.69;;;5.65;48.39
70343;BME280;57767;42.068;24.752;2023-02-03T01:01:30;99102.19;;;5.69;48.44
70343;BME280;57767;42.068;24.752;2023-02-03T01:02:32;99090.25;;;5.58;48.03
70343;BME280;57767;42.068;24.752;2023-02-03T01:03:33;99117.75;;;5.62;48.27
70343;BME280;57767;42.068;24.752;2023-02-03T01:04:35;99113.81;;;5.58;48.27
70343;BME280;57767;42.068;24.752;2023-02-03T01:05:37;99107.13;;;5.56;48.13
70343;BME280;57767;42.068;24.752;2023-02-03T01:06:39;99124.13;;;5.68;48.46
70343;BME280;57767;42.068;24.752;2023-02-03T01:07:41;99117.06;;;5.68;48.36
70343;BME280;57767;42.068;24.752;2023-02-03T01:08:42;99116.09;;;5.69;48.92
70343;BME280;57767;42.068;24.752;2023-02-03T01:09:44;99103.50;;;5.65;48.07
70343;BME280;57767;42.068;24.752;2023-02-03T01:10:46;99103.00;;;5.61;48.18
70343;BME280;57767;42.068;24.752;2023-02-03T01:11:48;99109.56;;;5.65;48.56
70343;BME280;57767;42.068;24.752;2023-02-03T01:12:49;99115.06;;;5.70;48.37
70343;BME280;57767;42.068;24.752;2023-02-03T01:13:52;99114.25;;;5.70;48.37
70343;BME280;57767;42.068;24.752;2023-02-03T01:14:54;99110.69;;;5.63;48.79
70343;BME280;57767;42.068;24.752;2023-02-03T01:15:56;99104.16;;;5.59;48.52
70343;BME280;57767;42.068;24.752;2023-02-03T01:16:57;99112.50;;;5.62;48.61
70343;BME280;57767;42.068;24.752;2023-02-03T01:17:59;99117.91;;;5.69;48.26
70343;BME280;57767;42.068;24.752;2023-02-03T01:19:01;99121.66;;;5.66;49.24
70343;BME280;57767;42.068;24.752;2023-02-03T01:20:03;99107.44;;;5.61;48.78
70343;BME280;57767;42.068;24.752;2023-02-03T01:21:10;99121.13;;;5.71;48.39
70343;BME280;57767;42.068;24.752;2023-02-03T01:22:12;99100.91;;;5.57;48.76
70343;BME280;57767;42.068;24.752;2023-02-03T01:23:14;99115.78;;;5.64;49.17
70343;BME280;57767;42.068;24.752;2023-02-03T01:24:16;99100.38;;;5.61;48.62
70343;BME280;57767;42.068;24.752;2023-02-03T01:25:17;99100.38;;;5.61;48.35
70343;BME280;57767;42.068;24.752;2023-02-03T01:26:20;99109.84;;;5.70;49.52
70343;BME280;57767;42.068;24.752;2023-02-03T01:27:22;99107.69;;;5.74;49.28
70343;BME280;57767;42.068;24.752;2023-02-03T01:28:24;99110.50;;;5.72;49.47
70343;BME280;57767;42.068;24.752;2023-02-03T01:29:26;99121.63;;;5.74;49.42
70343;BME280;57767;42.068;24.752;2023-02-03T01:30:27;99121.13;;;5.71;49.74
70343;BME280;57767;42.068;24.752;2023-02-03T01:31:33;99118.50;;;5.71;49.49
70343;BME280;57767;42.068;24.752;2023-02-03T01:32:40;99123.75;;;5.79;49.14
70343;BME280;57767;42.068;24.752;2023-02-03T01:33:42;99122.13;;;5.70;49.98
70343;BME280;57767;42.068;24.752;2023-02-03T01:34:46;99096.00;;;5.54;49.31
70343;BME280;57767;42.068;24.752;2023-02-03T01:35:48;99120.50;;;5.69;48.75
70343;BME280;57767;42.068;24.752;2023-02-03T01:36:49;99126.88;;;5.74;49.73
70343;BME280;57767;42.068;24.752;2023-02-03T01:37:51;99123.13;;;5.69;50.06
70343;BME280;57767;42.068;24.752;2023-02-03T01:38:53;99140.81;;;5.67;49.48
70343;BME280;57767;42.068;24.752;2023-02-03T01:39:55;99137.22;;;5.68;49.98
70343;BME280;57767;42.068;24.752;2023-02-03T01:40:57;99128.38;;;5.61;50.40
70343;BME280;57767;42.068;24.752;2023-02-03T01:41:59;99140.34;;;5.63;50.48
70343;BME280;57767;42.068;24.752;2023-02-03T01:43:01;99136.72;;;5.64;50.39
70343;BME280;57767;42.068;24.752;2023-02-03T01:45:32;99143.44;;;5.59;50.71
70343;BME280;57767;42.068;24.752;2023-02-03T01:46:42;99131.69;;;5.55;50.66
70343;BME280;57767;42.068;24.752;2023-02-03T01:47:57;99127.94;;;5.49;51.07
70343;BME280;57767;42.068;24.752;2023-02-03T01:50:17;99145.28;;;5.50;52.16
70343;BME280;57767;42.068;24.752;2023-02-03T01:51:21;99145.16;;;5.44;51.82
70343;BME280;57767;42.068;24.752;2023-02-03T01:52:24;99143.00;;;5.47;52.64
70343;BME280;57767;42.068;24.752;2023-02-03T01:53:27;99145.47;;;5.40;51.69
70343;BME280;57767;42.068;24.752;2023-02-03T01:54:31;99148.09;;;5.40;52.27
70343;BME280;57767;42.068;24.752;2023-02-03T01:55:42;99151.72;;;5.39;52.05
70343;BME280;57767;42.068;24.752;2023-02-03T01:56:47;99148.09;;;5.32;52.52
70343;BME280;57767;42.068;24.752;2023-02-03T01:57:59;99142.88;;;5.24;52.54
70343;BME280;57767;42.068;24.752;2023-02-03T01:59:02;99154.03;;;5.26;53.08
70343;BME280;57767;42.068;24.752;2023-02-03T02:00:05;99152.72;;;5.22;53.15
70343;BME280;57767;42.068;24.752;2023-02-03T02:01:07;99160.06;;;5.27;53.74
70343;BME280;57767;42.068;24.752;2023-02-03T02:02:10;99159.59;;;5.23;53.70
70343;BME280;57767;42.068;24.752;2023-02-03T02:03:12;99161.22;;;5.24;53.72
70343;BME280;57767;42.068;24.752;2023-02-03T02:04:15;99147.50;;;5.14;53.84
70343;BME280;57767;42.068;24.752;2023-02-03T02:06:55;99174.47;;;5.23;53.74
70343;BME280;57767;42.068;24.752;2023-02-03T02:07:59;99176.09;;;5.24;53.88
70343;BME280;57767;42.068;24.752;2023-02-03T02:09:02;99183.81;;;5.25;53.77
70343;BME280;57767;42.068;24.752;2023-02-03T02:10:05;99179.53;;;5.24;54.10
70343;BME280;57767;42.068;24.752;2023-02-03T02:11:07;99168.78;;;5.19;54.63
70343;BME280;57767;42.068;24.752;2023-02-03T02:12:10;99175.00;;;5.18;53.99
70343;BME280;57767;42.068;24.752;2023-02-03T02:13:14;99171.88;;;5.15;54.58
70343;BME280;57767;42.068;24.752;2023-02-03T02:14:16;99177.94;;;5.15;55.32
70343;BME280;57767;42.068;24.752;2023-02-03T02:15:19;99162.88;;;5.09;55.34
70343;BME280;57767;42.068;24.752;2023-02-03T02:16:41;99171.88;;;5.15;55.07
70343;BME280;57767;42.068;24.752;2023-02-03T02:19:42;99183.00;;;5.09;55.69
70343;BME280;57767;42.068;24.752;2023-02-03T02:21:23;99183.97;;;5.08;55.55
70343;BME280;57767;42.068;24.752;2023-02-03T02:26:55;99192.66;;;5.00;56.73
70343;BME280;57767;42.068;24.752;2023-02-03T02:28:14;99185.31;;;5.03;56.25
70343;BME280;57767;42.068;24.752;2023-02-03T02:32:02;99185.63;;;5.00;56.71
70343;BME280;57767;42.068;24.752;2023-02-03T02:34:42;99182.53;;;5.05;55.70
70343;BME280;57767;42.068;24.752;2023-02-03T02:35:57;99174.81;;;4.95;56.63
70343;BME280;57767;42.068;24.752;2023-02-03T02:37:25;99195.28;;;5.00;56.76
70343;BME280;57767;42.068;24.752;2023-02-03T02:38:37;99188.06;;;5.02;56.52
70343;BME280;57767;42.068;24.752;2023-02-03T02:39:54;99194.28;;;5.01;56.22
70343;BME280;57767;42.068;24.752;2023-02-03T02:41:10;99186.59;;;4.99;55.86
70343;BME280;57767;42.068;24.752;2023-02-03T02:42:36;99197.22;;;4.98;56.06
70343;BME280;57767;42.068;24.752;2023-02-03T02:43:57;99199.53;;;5.01;56.00
70343;BME280;57767;42.068;24.752;2023-02-03T02:45:13;99198.53;;;5.02;55.87
70343;BME280;57767;42.068;24.752;2023-02-03T02:46:42;99201.97;;;5.02;55.85
70343;BME280;57767;42.068;24.752;2023-02-03T02:47:47;99193.94;;;4.96;56.11
70343;BME280;57767;42.068;24.752;2023-02-03T02:48:54;99206.88;;;4.97;56.11
70343;BME280;57767;42.068;24.752;2023-02-03T02:50:22;99193.31;;;4.94;56.32
70343;BME280;57767;42.068;24.752;2023-02-03T02:51:27;99185.47;;;4.78;56.69
70343;BME280;57767;42.068;24.752;2023-02-03T02:52:33;99209.50;;;4.89;56.77
70343;BME280;57767;42.068;24.752;2023-02-03T02:53:43;99195.25;;;4.84;56.77
70343;BME280;57767;42.068;24.752;2023-02-03T02:54:56;99193.31;;;4.86;56.29
70343;BME280;57767;42.068;24.752;2023-02-03T02:56:02;99196.91;;;4.85;56.33
70343;BME280;57767;42.068;24.752;2023-02-03T02:57:09;99197.25;;;4.90;56.44
70343;BME280;57767;42.068;24.752;2023-02-03T02:58:13;99198.88;;;4.91;56.57
70343;BME280;57767;42.068;24.752;2023-02-03T02:59:16;99197.41;;;4.88;55.71
70343;BME280;57767;42.068;24.752;2023-02-03T03:00:18;99204.41;;;4.96;56.52
70343;BME280;57767;42.068;24.752;2023-02-03T03:01:19;99196.91;;;4.85;56.11
70343;BME280;57767;42.068;24.752;2023-02-03T03:02:21;99199.03;;;4.89;56.57
70343;BME280;57767;42.068;24.752;2023-02-03T03:03:27;99191.34;;;4.88;56.61
70343;BME280;57767;42.068;24.752;2023-02-03T03:04:31;99208.38;;;4.92;56.00
70343;BME280;57767;42.068;24.752;2023-02-03T03:05:34;99208.19;;;4.93;55.90
70343;BME280;57767;42.068;24.752;2023-02-03T03:07:48;99205.59;;;4.93;56.09
70343;BME280;57767;42.068;24.752;2023-02-03T03:09:00;99190.03;;;4.84;55.75
70343;BME280;57767;42.068;24.752;2023-02-03T03:10:07;99188.38;;;4.83;55.72
70343;BME280;57767;42.068;24.752;2023-02-03T03:11:10;99198.22;;;4.89;56.17
70343;BME280;57767;42.068;24.752;2023-02-03T03:12:22;99203.28;;;4.90;56.05
70343;BME280;57767;42.068;24.752;2023-02-03T03:13:30;99201.81;;;4.80;55.80
70343;BME280;57767;42.068;24.752;2023-02-03T03:14:32;99207.38;;;4.85;56.15
70343;BME280;57767;42.068;24.752;2023-02-03T03:15:38;99205.88;;;4.82;56.09
70343;BME280;57767;42.068;24.752;2023-02-03T03:16:44;99209.16;;;4.84;55.56
70343;BME280;57767;42.068;24.752;2023-02-03T03:17:57;99209.00;;;4.86;55.19
70343;BME280;57767;42.068;24.752;2023-02-03T03:19:04;99212.91;;;4.82;56.05
70343;BME280;57767;42.068;24.752;2023-02-03T03:20:12;99199.19;;;4.80;55.30
70343;BME280;57767;42.068;24.752;2023-02-03T03:21:23;99207.53;;;4.91;54.96
70343;BME280;57767;42.068;24.752;2023-02-03T03:22:29;99208.69;;;4.89;55.54
70343;BME280;57767;42.068;24.752;2023-02-03T03:23:38;99212.75;;;4.83;55.19
70343;BME280;57767;42.068;24.752;2023-02-03T03:24:47;99212.75;;;4.83;55.55
70343;BME280;57767;42.068;24.752;2023-02-03T03:25:54;99212.91;;;4.82;55.13
70343;BME280;57767;42.068;24.752;2023-02-03T03:27:09;99207.03;;;4.80;55.02
70343;BME280;57767;42.068;24.752;2023-02-03T03:28:19;99222.75;;;4.88;54.66
70343;BME280;57767;42.068;24.752;2023-02-03T03:29:54;99221.09;;;4.79;55.03
70343;BME280;57767;42.068;24.752;2023-02-03T03:30:57;99219.31;;;4.79;54.34
70343;BME280;57767;42.068;24.752;2023-02-03T03:32:00;99220.13;;;4.80;54.86
70343;BME280;57767;42.068;24.752;2023-02-03T03:33:03;99227.63;;;4.83;54.77
70343;BME280;57767;42.068;24.752;2023-02-03T03:34:08;99222.09;;;4.86;53.90
70343;BME280;57767;42.068;24.752;2023-02-03T03:35:11;99227.97;;;4.88;53.91
70343;BME280;57767;42.068;24.752;2023-02-03T03:37:34;99229.28;;;4.92;52.98
70343;BME280;57767;42.068;24.752;2023-02-03T03:38:43;99236.16;;;4.93;53.66
70343;BME280;57767;42.068;24.752;2023-02-03T03:39:56;99188.38;;;4.58;53.32
70343;BME280;57767;42.068;24.752;2023-02-03T03:41:04;99224.19;;;4.74;53.52
70343;BME280;57767;42.068;24.752;2023-02-03T03:42:20;99239.72;;;4.84;53.86
70343;BME280;57767;42.068;24.752;2023-02-03T03:43:29;99235.66;;;4.81;53.31
70343;BME280;57767;42.068;24.752;2023-02-03T03:44:44;99233.38;;;4.86;52.72
70343;BME280;57767;42.068;24.752;2023-02-03T03:45:58;99233.84;;;4.82;52.66
70343;BME280;57767;42.068;24.752;2023-02-03T03:47:26;99244.16;;;4.83;52.94
70343;BME280;57767;42.068;24.752;2023-02-03T03:48:35;99247.59;;;4.84;53.39
70343;BME280;57767;42.068;24.752;2023-02-03T03:49:40;99242.03;;;4.79;53.11
70343;BME280;57767;42.068;24.752;2023-02-03T03:50:52;99243.16;;;4.84;52.31
70343;BME280;57767;42.068;24.752;2023-02-03T03:52:03;99244.66;;;4.87;53.08
70343;BME280;57767;42.068;24.752;2023-02-03T03:53:08;99219.16;;;4.81;52.87
70343;BME280;57767;42.068;24.752;2023-02-03T03:54:14;99234.53;;;4.92;52.79
70343;BME280;57767;42.068;24.752;2023-02-03T03:55:18;99237.31;;;4.90;51.93
70343;BME280;57767;42.068;24.752;2023-02-03T03:56:27;99243.03;;;4.94;52.26
70343;BME280;57767;42.068;24.752;2023-02-03T03:57:55;99235.97;;;4.86;51.74
70343;BME280;57767;42.068;24.752;2023-02-03T03:59:00;99238.28;;;4.81;52.11
70343;BME280;57767;42.068;24.752;2023-02-03T04:00:05;99235.31;;;4.84;51.96
70343;BME280;57767;42.068;24.752;2023-02-03T04:01:11;99235.97;;;4.86;51.88
70343;BME280;57767;42.068;24.752;2023-02-03T04:02:15;99231.88;;;4.84;51.41
70343;BME280;57767;42.068;24.752;2023-02-03T04:03:23;99239.88;;;4.82;52.37
70343;BME280;57767;42.068;24.752;2023-02-03T04:04:27;99228.28;;;4.77;51.75
70343;BME280;57767;42.068;24.752;2023-02-03T04:05:30;99245.47;;;4.87;51.51
70343;BME280;57767;42.068;24.752;2023-02-03T04:06:32;99249.88;;;4.87;52.44
70343;BME280;57767;42.068;24.752;2023-02-03T04:07:39;99251.19;;;4.91;52.10
70343;BME280;57767;42.068;24.752;2023-02-03T04:08:41;99250.22;;;4.92;51.72
70343;BME280;57767;42.068;24.752;2023-02-03T04:09:43;99248.56;;;4.75;52.05
70343;BME280;57767;42.068;24.752;2023-02-03T04:10:45;99268.84;;;4.81;51.85
70343;BME280;57767;42.068;24.752;2023-02-03T04:11:46;99268.66;;;4.82;52.09
70343;BME280;57767;42.068;24.752;2023-02-03T04:13:04;99253.44;;;4.69;52.45
70343;BME280;57767;42.068;24.752;2023-02-03T04:14:06;99269.50;;;4.83;52.30
70343;BME280;57767;42.068;24.752;2023-02-03T04:15:08;99263.63;;;4.81;51.90
70343;BME280;57767;42.068;24.752;2023-02-03T04:16:09;99283.75;;;4.88;52.34
70343;BME280;57767;42.068;24.752;2023-02-03T04:17:11;99273.13;;;4.90;52.32
70343;BME280;57767;42.068;24.752;2023-02-03T04:18:14;99272.47;;;4.88;52.09
70343;BME280;57767;42.068;24.752;2023-02-03T04:19:16;99278.50;;;4.88;52.20
70343;BME280;57767;42.068;24.752;2023-02-03T04:20:17;99271.13;;;4.84;51.98
70343;BME280;57767;42.068;24.752;2023-02-03T04:21:19;99262.63;;;4.82;52.90
70343;BME280;57767;42.068;24.752;2023-02-03T04:22:20;99279.31;;;4.89;51.99
70343;BME280;57767;42.068;24.752;2023-02-03T04:23:22;99287.00;;;4.90;52.95
70343;BME280;57767;42.068;24.752;2023-02-03T04:24:24;99279.63;;;4.86;52.00
70343;BME280;57767;42.068;24.752;2023-02-03T04:25:25;99281.94;;;4.89;52.25
70343;BME280;57767;42.068;24.752;2023-02-03T04:26:27;99278.34;;;4.90;52.22
70343;BME280;57767;42.068;24.752;2023-02-03T04:27:29;99273.94;;;4.90;52.78
70343;BME280;57767;42.068;24.752;2023-02-03T04:28:30;99269.69;;;4.89;52.55
70343;BME280;57767;42.068;24.752;2023-02-03T04:29:32;99263.78;;;4.87;52.57
70343;BME280;57767;42.068;24.752;2023-02-03T04:30:33;99261.00;;;4.89;53.05
70343;BME280;57767;42.068;24.752;2023-02-03T04:31:35;99260.81;;;4.82;52.82
70343;BME280;57767;42.068;24.752;2023-02-03T04:32:39;99271.16;;;4.92;53.58
70343;BME280;57767;42.068;24.752;2023-02-03T04:33:41;99271.97;;;4.92;53.48
70343;BME280;57767;42.068;24.752;2023-02-03T04:34:42;99279.16;;;4.90;54.15
70343;BME280;57767;42.068;24.752;2023-02-03T04:35:44;99285.22;;;4.91;53.21
70343;BME280;57767;42.068;24.752;2023-02-03T04:36:45;99273.94;;;4.90;53.16
70343;BME280;57767;42.068;24.752;2023-02-03T04:37:47;99287.53;;;4.94;53.86
70343;BME280;57767;42.068;24.752;2023-02-03T04:38:49;99279.31;;;4.89;53.72
70343;BME280;57767;42.068;24.752;2023-02-03T04:39:51;99278.66;;;4.87;54.38
70343;BME280;57767;42.068;24.752;2023-02-03T04:40:53;99276.34;;;4.76;53.82
70343;BME280;57767;42.068;24.752;2023-02-03T04:41:54;99287.47;;;4.78;54.91
70343;BME280;57767;42.068;24.752;2023-02-03T04:42:56;99279.94;;;4.75;55.17
70343;BME280;57767;42.068;24.752;2023-02-03T04:43:58;99285.84;;;4.85;54.77
70343;BME280;57767;42.068;24.752;2023-02-03T04:45:00;99279.78;;;4.84;54.51
70343;BME280;57767;42.068;24.752;2023-02-03T04:46:01;99285.84;;;4.85;54.95
70343;BME280;57767;42.068;24.752;2023-02-03T04:47:03;99246.25;;;4.63;55.14
70343;BME280;57767;42.068;24.752;2023-02-03T04:48:05;99276.19;;;4.85;55.33
70343;BME280;57767;42.068;24.752;2023-02-03T04:49:06;99263.94;;;4.78;55.39
70343;BME280;57767;42.068;24.752;2023-02-03T04:50:11;99270.81;;;4.79;55.58
70343;BME280;57767;42.068;24.752;2023-02-03T04:51:13;99268.03;;;4.80;54.95
70343;BME280;57767;42.068;24.752;2023-02-03T04:52:15;99260.34;;;4.79;55.73
70343;BME280;57767;42.068;24.752;2023-02-03T04:53:16;99258.72;;;4.78;55.11
70343;BME280;57767;42.068;24.752;2023-02-03T04:54:18;99254.28;;;4.78;55.97
70343;BME280;57767;42.068;24.752;2023-02-03T04:55:20;99257.53;;;4.72;55.60
70343;BME280;57767;42.068;24.752;2023-02-03T04:56:21;99255.75;;;4.73;55.81
70343;BME280;57767;42.068;24.752;2023-02-03T04:57:23;99246.75;;;4.67;55.65
70343;BME280;57767;42.068;24.752;2023-02-03T04:58:25;99249.84;;;4.62;56.17
70343;BME280;57767;42.068;24.752;2023-02-03T04:59:27;99263.75;;;4.71;56.16
70343;BME280;57767;42.068;24.752;2023-02-03T05:00:29;99259.19;;;4.73;55.79
70343;BME280;57767;42.068;24.752;2023-02-03T05:01:31;99260.16;;;4.72;55.64
70343;BME280;57767;42.068;24.752;2023-02-03T05:02:32;99258.81;;;4.60;56.44
70343;BME280;57767;42.068;24.752;2023-02-03T05:03:34;99255.22;;;4.53;56.99
70343;BME280;57767;42.068;24.752;2023-02-03T05:04:37;99257.00;;;4.52;57.01
70343;BME280;57767;42.068;24.752;2023-02-03T05:05:39;99250.75;;;4.45;56.59
70343;BME280;57767;42.068;24.752;2023-02-03T05:06:40;99258.50;;;4.55;56.47
70343;BME280;57767;42.068;24.752;2023-02-03T05:07:42;99255.06;;;4.54;56.22
70343;BME280;57767;42.068;24.752;2023-02-03T05:08:44;99264.69;;;4.54;56.13
70343;BME280;57767;42.068;24.752;2023-02-03T05:09:45;99264.66;;;4.46;56.98
70343;BME280;57767;42.068;24.752;2023-02-03T05:10:47;99271.06;;;4.51;56.94
70343;BME280;57767;42.068;24.752;2023-02-03T05:11:49;99267.63;;;4.51;56.80
70343;BME280;57767;42.068;24.752;2023-02-03T05:12:50;99259.94;;;4.49;56.55
70343;BME280;57767;42.068;24.752;2023-02-03T05:13:52;99249.41;;;4.33;56.41
70343;BME280;57767;42.068;24.752;2023-02-03T05:14:54;99248.28;;;4.36;57.21
70343;BME280;57767;42.068;24.752;2023-02-03T05:15:56;99251.09;;;4.42;56.73
70343;BME280;57767;42.068;24.752;2023-02-03T05:16:57;99237.53;;;4.39;56.01
70343;BME280;57767;42.068;24.752;2023-02-03T05:17:59;99260.75;;;4.50;56.89
70343;BME280;57767;42.068;24.752;2023-02-03T05:19:01;99268.44;;;4.51;56.63
70343;BME280;57767;42.068;24.752;2023-02-03T05:20:03;99263.03;;;4.45;56.80
70343;BME280;57767;42.068;24.752;2023-02-03T05:21:05;99264.19;;;4.42;55.90
70343;BME280;57767;42.068;24.752;2023-02-03T05:22:07;99278.22;;;4.41;55.82
70343;BME280;57767;42.068;24.752;2023-02-03T05:23:08;99229.13;;;4.19;56.28
70343;BME280;57767;42.068;24.752;2023-02-03T05:24:10;99262.66;;;4.31;56.18
70343;BME280;57767;42.068;24.752;2023-02-03T05:25:12;99269.66;;;4.31;55.44
70343;BME280;57767;42.068;24.752;2023-02-03T05:26:14;99272.78;;;4.35;55.53
70343;BME280;57767;42.068;24.752;2023-02-03T05:27:16;99290.13;;;4.36;56.09
70343;BME280;57767;42.068;24.752;2023-02-03T05:28:18;99268.38;;;4.35;55.79
70343;BME280;57767;42.068;24.752;2023-02-03T05:29:19;99286.03;;;4.33;55.27
70343;BME280;57767;42.068;24.752;2023-02-03T05:30:21;99296.16;;;4.36;55.77
70343;BME280;57767;42.068;24.752;2023-02-03T05:31:23;99281.94;;;4.30;55.35
70343;BME280;57767;42.068;24.752;2023-02-03T05:32:25;99296.16;;;4.36;55.32
70343;BME280;57767;42.068;24.752;2023-02-03T05:33:28;99299.28;;;4.40;55.32
70343;BME280;57767;42.068;24.752;2023-02-03T05:34:30;99301.09;;;4.39;54.74
70343;BME280;57767;42.068;24.752;2023-02-03T05:35:32;99306.00;;;4.42;55.06
70343;BME280;57767;42.068;24.752;2023-02-03T05:36:33;99304.69;;;4.38;55.00
70343;BME280;57767;42.068;24.752;2023-02-03T05:37:35;99308.78;;;4.41;54.74
70343;BME280;57767;42.068;24.752;2023-02-03T05:38:37;99304.38;;;4.41;54.85
70343;BME280;57767;42.068;24.752;2023-02-03T05:39:38;99311.25;;;4.42;54.70
70343;BME280;57767;42.068;24.752;2023-02-03T05:40:40;99309.94;;;4.46;54.72
70343;BME280;57767;42.068;24.752;2023-02-03T05:42:00;99316.47;;;4.42;54.00
70343;BME280;57767;42.068;24.752;2023-02-03T05:43:03;99306.78;;;4.35;54.48
70343;BME280;57767;42.068;24.752;2023-02-03T05:44:05;99313.66;;;4.44;53.99
70343;BME280;57767;42.068;24.752;2023-02-03T05:45:07;99309.25;;;4.44;54.46
70343;BME280;57767;42.068;24.752;2023-02-03T05:46:08;99309.09;;;4.38;54.57
70343;BME280;57767;42.068;24.752;2023-02-03T05:47:10;99305.97;;;4.34;54.88
70343;BME280;57767;42.068;24.752;2023-02-03T05:48:12;99302.72;;;4.40;54.27
70343;BME280;57767;42.068;24.752;2023-02-03T05:49:14;99310.09;;;4.45;54.04
70343;BME280;57767;42.068;24.752;2023-02-03T05:50:15;99306.16;;;4.41;54.07
70343;BME280;57767;42.068;24.752;2023-02-03T05:51:17;99304.16;;;4.35;54.53
70343;BME280;57767;42.068;24.752;2023-02-03T05:52:19;99306.31;;;4.39;54.68
70343;BME280;57767;42.068;24.752;2023-02-03T05:53:21;99313.34;;;4.39;54.86
70343;BME280;57767;42.068;24.752;2023-02-03T05:54:23;99311.41;;;4.41;54.08
70343;BME280;57767;42.068;24.752;2023-02-03T05:55:26;99301.56;;;4.35;54.35
70343;BME280;57767;42.068;24.752;2023-02-03T05:56:28;99318.41;;;4.40;54.46
70343;BME280;57767;42.068;24.752;2023-02-03T05:57:30;99315.13;;;4.38;53.87
70343;BME280;57767;42.068;24.752;2023-02-03T05:58:32;99311.84;;;4.36;54.23